sensor_id;sensor_type;location;lat;lon;timestamp;P1;durP1;ratioP1;P2;durP2;ratioP2
4359;SDS011;2193;47.980;7.660;2023-04-25T00:01:45;6.17;;;3.97;;
4359;SDS011;2193;47.980;7.660;2023-04-25T00:04:10;7.43;;;3.47;;
4359;SDS011;2193;47.980;7.660;2023-04-25T00:06:36;5.93;;;3.00;;
4359;SDS011;2193;47.980;7.660;2023-04-25T00:09:02;5.80;;;3.70;;
4359;SDS011;2193;47.980;7.660;2023-04-25T00:11:28;6.97;;;3.47;;
4359;SDS011;2193;47.980;7.660;2023-04-25T00:13:55;5.47;;;3.40;;
4359;SDS011;2193;47.980;7.660;2023-04-25T00:16:20;6.00;;;3.30;;
4359;SDS011;2193;47.980;7.660;2023-04-25T00:18:45;10.10;;;3.30;;
4359;SDS011;2193;47.980;7.660;2023-04-25T00:21:16;12.13;;;4.00;;
4359;SDS011;2193;47.980;7.660;2023-04-25T00:23:43;6.33;;;3.00;;
4359;SDS011;2193;47.980;7.660;2023-04-25T00:26:08;9.73;;;3.20;;
4359;SDS011;2193;47.980;7.660;2023-04-25T00:28:33;7.23;;;3.00;;
4359;SDS011;2193;47.980;7.660;2023-04-25T00:30:58;4.23;;;3.00;;
4359;SDS011;2193;47.980;7.660;2023-04-25T00:33:23;6.00;;;3.20;;
4359;SDS011;2193;47.980;7.660;2023-04-25T00:35:49;6.60;;;3.33;;
4359;SDS011;2193;47.980;7.660;2023-04-25T00:38:14;4.87;;;2.87;;
4359;SDS011;2193;47.980;7.660;2023-04-25T00:40:40;4.00;;;3.33;;
4359;SDS011;2193;47.980;7.660;2023-04-25T00:43:05;8.90;;;4.27;;
4359;SDS011;2193;47.980;7.660;2023-04-25T00:45:30;8.07;;;3.33;;
4359;SDS011;2193;47.980;7.660;2023-04-25T00:47:55;7.07;;;3.90;;
4359;SDS011;2193;47.980;7.660;2023-04-25T00:50:21;9.47;;;4.50;;
4359;SDS011;2193;47.980;7.660;2023-04-25T00:52:46;6.13;;;3.90;;
4359;SDS011;2193;47.980;7.660;2023-04-25T00:55:12;5.47;;;4.20;;
4359;SDS011;2193;47.980;7.660;2023-04-25T00:57:37;8.70;;;4.40;;
4359;SDS011;2193;47.980;7.660;2023-04-25T01:00:04;10.23;;;4.20;;
4359;SDS011;2193;47.980;7.660;2023-04-25T01:02:30;7.77;;;4.67;;
4359;SDS011;2193;47.980;7.660;2023-04-25T01:04:56;8.20;;;5.37;;
4359;SDS011;2193;47.980;7.660;2023-04-25T01:07:21;8.33;;;4.70;;
4359;SDS011;2193;47.980;7.660;2023-04-25T01:09:46;13.03;;;4.97;;
4359;SDS011;2193;47.980;7.660;2023-04-25T01:12:12;23.33;;;5.23;;
4359;SDS011;2193;47.980;7.660;2023-04-25T01:14:37;8.37;;;5.10;;
4359;SDS011;2193;47.980;7.660;2023-04-25T01:17:02;9.70;;;4.93;;
4359;SDS011;2193;47.980;7.660;2023-04-25T01:19:28;8.07;;;4.47;;
4359;SDS011;2193;47.980;7.660;2023-04-25T01:21:53;9.60;;;5.10;;
4359;SDS011;2193;47.980;7.660;2023-04-25T01:24:18;8.00;;;5.37;;
4359;SDS011;2193;47.980;7.660;2023-04-25T01:26:44;11.17;;;4.83;;
4359;SDS011;2193;47.980;7.660;2023-04-25T01:29:14;13.43;;;5.20;;
4359;SDS011;2193;47.980;7.660;2023-04-25T01:31:39;8.83;;;5.33;;
4359;SDS011;2193;47.980;7.660;2023-04-25T01:34:04;10.53;;;5.40;;
4359;SDS011;2193;47.980;7.660;2023-04-25T01:36:30;8.00;;;5.10;;
4359;SDS011;2193;47.980;7.660;2023-04-25T01:38:56;10.43;;;5.53;;
4359;SDS011;2193;47.980;7.660;2023-04-25T01:41:21;9.00;;;5.33;;
4359;SDS011;2193;47.980;7.660;2023-04-25T01:43:48;10.80;;;5.00;;
4359;SDS011;2193;47.980;7.660;2023-04-25T01:46:13;8.40;;;5.07;;
4359;SDS011;2193;47.980;7.660;2023-04-25T01:48:38;8.73;;;5.40;;
4359;SDS011;2193;47.980;7.660;2023-04-25T01:51:03;7.90;;;5.80;;
4359;SDS011;2193;47.980;7.660;2023-04-25T01:53:29;5.27;;;4.57;;
4359;SDS011;2193;47.980;7.660;2023-04-25T01:55:54;13.63;;;5.90;;
4359;SDS011;2193;47.980;7.660;2023-04-25T01:58:19;10.20;;;5.50;;
4359;SDS011;2193;47.980;7.660;2023-04-25T02:00:45;12.83;;;5.00;;
4359;SDS011;2193;47.980;7.660;2023-04-25T02:03:11;7.17;;;5.20;;
4359;SDS011;2193;47.980;7.660;2023-04-25T02:05:37;10.80;;;5.07;;
4359;SDS011;2193;47.980;7.660;2023-04-25T02:08:02;9.10;;;5.07;;
4359;SDS011;2193;47.980;7.660;2023-04-25T02:10:28;13.10;;;6.00;;
4359;SDS011;2193;47.980;7.660;2023-04-25T02:12:53;16.23;;;5.47;;
4359;SDS011;2193;47.980;7.660;2023-04-25T02:15:18;7.03;;;5.10;;
4359;SDS011;2193;47.980;7.660;2023-04-25T02:17:44;10.93;;;5.50;;
4359;SDS011;2193;47.980;7.660;2023-04-25T02:20:10;9.33;;;4.70;;
4359;SDS011;2193;47.980;7.660;2023-04-25T02:22:35;8.60;;;5.33;;
4359;SDS011;2193;47.980;7.660;2023-04-25T02:25:01;10.37;;;5.20;;
4359;SDS011;2193;47.980;7.660;2023-04-25T02:27:27;11.50;;;5.23;;
4359;SDS011;2193;47.980;7.660;2023-04-25T02:29:52;8.60;;;5.70;;
4359;SDS011;2193;47.980;7.660;2023-04-25T02:32:17;8.93;;;5.10;;
4359;SDS011;2193;47.980;7.660;2023-04-25T02:34:42;8.87;;;5.17;;
4359;SDS011;2193;47.980;7.660;2023-04-25T02:37:08;13.47;;;5.80;;
4359;SDS011;2193;47.980;7.660;2023-04-25T02:39:33;7.20;;;5.30;;
4359;SDS011;2193;47.980;7.660;2023-04-25T02:41:58;8.93;;;5.27;;
4359;SDS011;2193;47.980;7.660;2023-04-25T02:44:23;11.33;;;5.17;;
4359;SDS011;2193;47.980;7.660;2023-04-25T02:46:48;10.77;;;5.93;;
4359;SDS011;2193;47.980;7.660;2023-04-25T02:49:14;7.73;;;5.13;;
4359;SDS011;2193;47.980;7.660;2023-04-25T02:51:39;8.53;;;5.93;;
4359;SDS011;2193;47.980;7.660;2023-04-25T02:54:04;16.13;;;5.30;;
4359;SDS011;2193;47.980;7.660;2023-04-25T02:56:31;10.73;;;5.60;;
4359;SDS011;2193;47.980;7.660;2023-04-25T02:58:56;12.97;;;5.33;;
4359;SDS011;2193;47.980;7.660;2023-04-25T03:01:21;13.73;;;6.20;;
4359;SDS011;2193;47.980;7.660;2023-04-25T03:03:46;11.30;;;5.43;;
4359;SDS011;2193;47.980;7.660;2023-04-25T03:06:12;14.10;;;5.70;;
4359;SDS011;2193;47.980;7.660;2023-04-25T03:08:37;11.77;;;5.30;;
4359;SDS011;2193;47.980;7.660;2023-04-25T03:11:02;12.77;;;5.70;;
4359;SDS011;2193;47.980;7.660;2023-04-25T03:13:27;11.87;;;5.20;;
4359;SDS011;2193;47.980;7.660;2023-04-25T03:15:54;8.87;;;5.37;;
4359;SDS011;2193;47.980;7.660;2023-04-25T03:18:20;12.53;;;6.13;;
4359;SDS011;2193;47.980;7.660;2023-04-25T03:20:45;13.10;;;6.17;;
4359;SDS011;2193;47.980;7.660;2023-04-25T03:23:11;12.02;;;5.65;;
4359;SDS011;2193;47.980;7.660;2023-04-25T03:25:36;7.13;;;5.17;;
4359;SDS011;2193;47.980;7.660;2023-04-25T03:28:02;13.13;;;5.50;;
4359;SDS011;2193;47.980;7.660;2023-04-25T03:30:27;10.53;;;5.87;;
4359;SDS011;2193;47.980;7.660;2023-04-25T03:32:52;12.73;;;5.67;;
4359;SDS011;2193;47.980;7.660;2023-04-25T03:35:17;12.37;;;5.40;;
4359;SDS011;2193;47.980;7.660;2023-04-25T03:37:42;8.63;;;5.50;;
4359;SDS011;2193;47.980;7.660;2023-04-25T03:40:11;11.60;;;5.65;;
4359;SDS011;2193;47.980;7.660;2023-04-25T03:42:36;10.93;;;5.27;;
4359;SDS011;2193;47.980;7.660;2023-04-25T03:45:01;8.80;;;5.30;;
4359;SDS011;2193;47.980;7.660;2023-04-25T03:47:26;9.47;;;5.57;;
4359;SDS011;2193;47.980;7.660;2023-04-25T03:49:52;9.10;;;5.30;;
4359;SDS011;2193;47.980;7.660;2023-04-25T03:52:17;12.60;;;5.37;;
4359;SDS011;2193;47.980;7.660;2023-04-25T03:54:42;11.17;;;4.50;;
4359;SDS011;2193;47.980;7.660;2023-04-25T03:57:07;9.50;;;5.20;;
4359;SDS011;2193;47.980;7.660;2023-04-25T03:59:33;9.53;;;5.40;;
4359;SDS011;2193;47.980;7.660;2023-04-25T04:01:58;11.23;;;5.50;;
4359;SDS011;2193;47.980;7.660;2023-04-25T04:04:23;12.80;;;5.20;;
4359;SDS011;2193;47.980;7.660;2023-04-25T04:06:48;10.27;;;5.70;;
4359;SDS011;2193;47.980;7.660;2023-04-25T04:09:13;15.77;;;5.23;;
4359;SDS011;2193;47.980;7.660;2023-04-25T04:11:40;10.85;;;4.80;;
4359;SDS011;2193;47.980;7.660;2023-04-25T04:14:06;9.83;;;5.10;;
4359;SDS011;2193;47.980;7.660;2023-04-25T04:16:31;9.80;;;5.37;;
4359;SDS011;2193;47.980;7.660;2023-04-25T04:18:56;8.10;;;4.73;;
4359;SDS011;2193;47.980;7.660;2023-04-25T04:21:22;11.43;;;5.23;;
4359;SDS011;2193;47.980;7.660;2023-04-25T04:23:47;11.70;;;5.63;;
4359;SDS011;2193;47.980;7.660;2023-04-25T04:26:13;6.30;;;5.07;;
4359;SDS011;2193;47.980;7.660;2023-04-25T04:28:40;7.25;;;5.18;;
4359;SDS011;2193;47.980;7.660;2023-04-25T04:31:05;12.30;;;5.37;;
4359;SDS011;2193;47.980;7.660;2023-04-25T04:33:32;13.50;;;5.68;;
4359;SDS011;2193;47.980;7.660;2023-04-25T04:35:57;11.53;;;5.73;;
4359;SDS011;2193;47.980;7.660;2023-04-25T04:38:22;9.83;;;5.03;;
4359;SDS011;2193;47.980;7.660;2023-04-25T04:40:48;11.97;;;5.90;;
4359;SDS011;2193;47.980;7.660;2023-04-25T04:43:15;7.72;;;5.43;;
4359;SDS011;2193;47.980;7.660;2023-04-25T04:45:42;11.52;;;5.88;;
4359;SDS011;2193;47.980;7.660;2023-04-25T04:48:08;8.97;;;5.63;;
4359;SDS011;2193;47.980;7.660;2023-04-25T04:50:33;12.60;;;6.03;;
4359;SDS011;2193;47.980;7.660;2023-04-25T04:52:59;11.33;;;5.70;;
4359;SDS011;2193;47.980;7.660;2023-04-25T04:55:24;7.87;;;4.90;;
4359;SDS011;2193;47.980;7.660;2023-04-25T04:57:49;9.90;;;5.57;;
4359;SDS011;2193;47.980;7.660;2023-04-25T05:00:15;11.00;;;5.60;;
4359;SDS011;2193;47.980;7.660;2023-04-25T05:02:40;10.50;;;6.07;;
4359;SDS011;2193;47.980;7.660;2023-04-25T05:05:05;10.87;;;5.70;;
4359;SDS011;2193;47.980;7.660;2023-04-25T05:07:31;14.33;;;5.60;;
4359;SDS011;2193;47.980;7.660;2023-04-25T05:09:56;10.50;;;5.57;;
4359;SDS011;2193;47.980;7.660;2023-04-25T05:12:21;9.53;;;5.83;;
4359;SDS011;2193;47.980;7.660;2023-04-25T05:14:46;8.20;;;6.00;;
4359;SDS011;2193;47.980;7.660;2023-04-25T05:17:11;15.60;;;5.40;;
4359;SDS011;2193;47.980;7.660;2023-04-25T05:19:37;9.53;;;5.40;;
4359;SDS011;2193;47.980;7.660;2023-04-25T05:22:02;8.87;;;5.20;;
4359;SDS011;2193;47.980;7.660;2023-04-25T05:24:28;8.30;;;4.63;;
4359;SDS011;2193;47.980;7.660;2023-04-25T05:26:53;9.30;;;5.40;;
4359;SDS011;2193;47.980;7.660;2023-04-25T05:29:18;10.33;;;4.67;;
4359;SDS011;2193;47.980;7.660;2023-04-25T05:31:44;10.93;;;4.70;;
4359;SDS011;2193;47.980;7.660;2023-04-25T05:34:09;8.20;;;4.60;;
4359;SDS011;2193;47.980;7.660;2023-04-25T05:36:34;8.03;;;4.57;;
4359;SDS011;2193;47.980;7.660;2023-04-25T05:39:00;11.57;;;4.90;;
4359;SDS011;2193;47.980;7.660;2023-04-25T05:41:25;13.33;;;4.30;;
4359;SDS011;2193;47.980;7.660;2023-04-25T05:43:50;9.20;;;3.80;;
4359;SDS011;2193;47.980;7.660;2023-04-25T05:46:15;7.83;;;4.20;;
4359;SDS011;2193;47.980;7.660;2023-04-25T05:48:43;4.47;;;3.40;;
4359;SDS011;2193;47.980;7.660;2023-04-25T05:51:09;6.27;;;2.80;;
4359;SDS011;2193;47.980;7.660;2023-04-25T05:53:34;6.73;;;3.40;;
4359;SDS011;2193;47.980;7.660;2023-04-25T05:55:59;3.53;;;2.20;;
4359;SDS011;2193;47.980;7.660;2023-04-25T05:58:25;3.90;;;1.90;;
4359;SDS011;2193;47.980;7.660;2023-04-25T06:00:50;2.53;;;1.97;;
4359;SDS011;2193;47.980;7.660;2023-04-25T06:03:15;6.43;;;2.30;;
4359;SDS011;2193;47.980;7.660;2023-04-25T06:05:41;4.40;;;1.50;;
4359;SDS011;2193;47.980;7.660;2023-04-25T06:08:06;2.50;;;1.83;;
4359;SDS011;2193;47.980;7.660;2023-04-25T06:10:31;2.00;;;1.83;;
4359;SDS011;2193;47.980;7.660;2023-04-25T06:12:56;3.00;;;2.07;;
4359;SDS011;2193;47.980;7.660;2023-04-25T06:15:22;6.60;;;2.57;;
4359;SDS011;2193;47.980;7.660;2023-04-25T06:17:47;3.13;;;2.00;;
4359;SDS011;2193;47.980;7.660;2023-04-25T06:20:13;3.50;;;2.53;;
4359;SDS011;2193;47.980;7.660;2023-04-25T06:22:38;4.17;;;2.23;;
4359;SDS011;2193;47.980;7.660;2023-04-25T06:25:04;2.70;;;2.10;;
4359;SDS011;2193;47.980;7.660;2023-04-25T06:27:29;3.20;;;2.20;;
4359;SDS011;2193;47.980;7.660;2023-04-25T06:29:54;6.07;;;2.63;;
4359;SDS011;2193;47.980;7.660;2023-04-25T06:32:19;4.97;;;2.03;;
4359;SDS011;2193;47.980;7.660;2023-04-25T06:34:45;2.73;;;2.43;;
4359;SDS011;2193;47.980;7.660;2023-04-25T06:37:10;5.40;;;2.27;;
4359;SDS011;2193;47.980;7.660;2023-04-25T06:39:35;15.00;;;2.60;;
4359;SDS011;2193;47.980;7.660;2023-04-25T06:42:00;7.30;;;1.90;;
4359;SDS011;2193;47.980;7.660;2023-04-25T06:44:26;2.60;;;1.83;;
4359;SDS011;2193;47.980;7.660;2023-04-25T06:46:51;5.17;;;2.57;;
4359;SDS011;2193;47.980;7.660;2023-04-25T06:49:16;3.40;;;2.40;;
4359;SDS011;2193;47.980;7.660;2023-04-25T06:51:42;8.13;;;2.43;;
4359;SDS011;2193;47.980;7.660;2023-04-25T06:54:07;2.50;;;2.30;;
4359;SDS011;2193;47.980;7.660;2023-04-25T06:56:32;3.30;;;2.83;;
4359;SDS011;2193;47.980;7.660;2023-04-25T06:58:57;6.70;;;2.20;;
4359;SDS011;2193;47.980;7.660;2023-04-25T07:01:22;2.73;;;2.33;;
4359;SDS011;2193;47.980;7.660;2023-04-25T07:03:47;2.57;;;2.37;;
4359;SDS011;2193;47.980;7.660;2023-04-25T07:06:13;4.03;;;2.27;;
4359;SDS011;2193;47.980;7.660;2023-04-25T07:08:38;2.00;;;1.90;;
4359;SDS011;2193;47.980;7.660;2023-04-25T07:11:03;2.43;;;2.20;;
4359;SDS011;2193;47.980;7.660;2023-04-25T07:13:28;4.00;;;1.93;;
4359;SDS011;2193;47.980;7.660;2023-04-25T07:15:53;2.40;;;1.80;;
4359;SDS011;2193;47.980;7.660;2023-04-25T07:18:19;2.20;;;2.00;;
4359;SDS011;2193;47.980;7.660;2023-04-25T07:20:44;5.60;;;1.87;;
4359;SDS011;2193;47.980;7.660;2023-04-25T07:23:09;2.57;;;2.17;;
4359;SDS011;2193;47.980;7.660;2023-04-25T07:25:34;2.43;;;1.90;;
4359;SDS011;2193;47.980;7.660;2023-04-25T07:28:00;2.77;;;2.17;;
4359;SDS011;2193;47.980;7.660;2023-04-25T07:30:25;2.27;;;2.03;;
4359;SDS011;2193;47.980;7.660;2023-04-25T07:32:50;1.80;;;1.70;;
4359;SDS011;2193;47.980;7.660;2023-04-25T07:35:16;2.53;;;1.90;;
4359;SDS011;2193;47.980;7.660;2023-04-25T07:37:41;1.90;;;1.80;;
4359;SDS011;2193;47.980;7.660;2023-04-25T07:40:06;2.00;;;1.80;;
4359;SDS011;2193;47.980;7.660;2023-04-25T07:42:32;2.17;;;2.07;;
4359;SDS011;2193;47.980;7.660;2023-04-25T07:44:58;4.53;;;2.47;;
4359;SDS011;2193;47.980;7.660;2023-04-25T07:47:23;2.20;;;2.00;;
4359;SDS011;2193;47.980;7.660;2023-04-25T07:49:48;3.00;;;2.10;;
4359;SDS011;2193;47.980;7.660;2023-04-25T07:52:13;3.80;;;2.10;;
4359;SDS011;2193;47.980;7.660;2023-04-25T07:54:39;3.53;;;2.03;;
4359;SDS011;2193;47.980;7.660;2023-04-25T07:57:05;2.30;;;2.10;;
4359;SDS011;2193;47.980;7.660;2023-04-25T07:59:33;1.75;;;1.65;;
4359;SDS011;2193;47.980;7.660;2023-04-25T08:01:58;2.00;;;1.90;;
4359;SDS011;2193;47.980;7.660;2023-04-25T08:04:24;2.30;;;1.83;;
4359;SDS011;2193;47.980;7.660;2023-04-25T08:06:50;4.85;;;2.30;;
4359;SDS011;2193;47.980;7.660;2023-04-25T08:09:15;2.93;;;1.80;;
4359;SDS011;2193;47.980;7.660;2023-04-25T08:11:40;2.13;;;1.93;;
4359;SDS011;2193;47.980;7.660;2023-04-25T08:14:06;3.13;;;1.70;;
4359;SDS011;2193;47.980;7.660;2023-04-25T08:16:31;2.30;;;2.10;;
4359;SDS011;2193;47.980;7.660;2023-04-25T08:18:58;2.80;;;2.10;;
4359;SDS011;2193;47.980;7.660;2023-04-25T08:21:23;4.53;;;2.35;;
4359;SDS011;2193;47.980;7.660;2023-04-25T08:23:49;3.60;;;2.30;;
4359;SDS011;2193;47.980;7.660;2023-04-25T08:26:14;2.60;;;2.40;;
4359;SDS011;2193;47.980;7.660;2023-04-25T08:28:39;2.47;;;2.13;;
4359;SDS011;2193;47.980;7.660;2023-04-25T08:31:05;2.70;;;2.20;;
4359;SDS011;2193;47.980;7.660;2023-04-25T08:33:30;4.97;;;2.50;;
4359;SDS011;2193;47.980;7.660;2023-04-25T08:35:56;2.97;;;2.50;;
4359;SDS011;2193;47.980;7.660;2023-04-25T08:38:21;2.40;;;2.17;;
4359;SDS011;2193;47.980;7.660;2023-04-25T08:40:48;2.30;;;2.10;;
4359;SDS011;2193;47.980;7.660;2023-04-25T08:43:14;3.77;;;2.20;;
4359;SDS011;2193;47.980;7.660;2023-04-25T08:45:40;3.40;;;2.03;;
4359;SDS011;2193;47.980;7.660;2023-04-25T08:48:07;2.47;;;2.30;;
4359;SDS011;2193;47.980;7.660;2023-04-25T08:50:32;2.13;;;1.93;;
4359;SDS011;2193;47.980;7.660;2023-04-25T08:52:58;5.50;;;2.20;;
4359;SDS011;2193;47.980;7.660;2023-04-25T08:55:26;3.57;;;2.37;;
4359;SDS011;2193;47.980;7.660;2023-04-25T08:57:52;2.47;;;2.13;;
4359;SDS011;2193;47.980;7.660;2023-04-25T09:00:19;1.73;;;1.60;;
4359;SDS011;2193;47.980;7.660;2023-04-25T09:02:45;2.90;;;2.07;;
4359;SDS011;2193;47.980;7.660;2023-04-25T09:05:12;1.77;;;1.67;;
4359;SDS011;2193;47.980;7.660;2023-04-25T09:07:37;1.73;;;1.63;;
4359;SDS011;2193;47.980;7.660;2023-04-25T09:10:02;1.70;;;1.60;;
4359;SDS011;2193;47.980;7.660;2023-04-25T09:12:28;1.43;;;1.33;;
4359;SDS011;2193;47.980;7.660;2023-04-25T09:15:04;1.73;;;1.60;;
4359;SDS011;2193;47.980;7.660;2023-04-25T09:17:30;1.70;;;1.40;;
4359;SDS011;2193;47.980;7.660;2023-04-25T09:19:55;1.83;;;1.73;;
4359;SDS011;2193;47.980;7.660;2023-04-25T09:22:30;2.30;;;1.30;;
4359;SDS011;2193;47.980;7.660;2023-04-25T09:24:55;1.83;;;1.60;;
4359;SDS011;2193;47.980;7.660;2023-04-25T09:27:20;1.50;;;1.40;;
4359;SDS011;2193;47.980;7.660;2023-04-25T09:29:50;2.27;;;1.50;;
4359;SDS011;2193;47.980;7.660;2023-04-25T09:32:23;2.20;;;1.30;;
4359;SDS011;2193;47.980;7.660;2023-04-25T09:34:52;2.53;;;1.80;;
4359;SDS011;2193;47.980;7.660;2023-04-25T09:37:21;1.30;;;1.20;;
4359;SDS011;2193;47.980;7.660;2023-04-25T09:39:47;1.30;;;1.20;;
4359;SDS011;2193;47.980;7.660;2023-04-25T09:42:13;1.40;;;1.30;;
4359;SDS011;2193;47.980;7.660;2023-04-25T09:44:41;1.37;;;1.27;;
4359;SDS011;2193;47.980;7.660;2023-04-25T09:47:09;1.80;;;1.43;;
4359;SDS011;2193;47.980;7.660;2023-04-25T09:49:34;2.90;;;1.50;;
4359;SDS011;2193;47.980;7.660;2023-04-25T09:52:03;1.67;;;1.13;;
4359;SDS011;2193;47.980;7.660;2023-04-25T09:54:29;2.30;;;1.30;;
4359;SDS011;2193;47.980;7.660;2023-04-25T09:56:54;2.60;;;1.40;;
4359;SDS011;2193;47.980;7.660;2023-04-25T09:59:20;1.63;;;1.53;;
4359;SDS011;2193;47.980;7.660;2023-04-25T10:01:45;2.53;;;1.50;;
4359;SDS011;2193;47.980;7.660;2023-04-25T10:04:11;1.90;;;1.77;;
4359;SDS011;2193;47.980;7.660;2023-04-25T10:06:37;2.80;;;1.53;;
4359;SDS011;2193;47.980;7.660;2023-04-25T10:09:02;2.20;;;1.60;;
4359;SDS011;2193;47.980;7.660;2023-04-25T10:11:28;2.80;;;1.80;;
4359;SDS011;2193;47.980;7.660;2023-04-25T10:13:54;2.30;;;1.77;;
4359;SDS011;2193;47.980;7.660;2023-04-25T10:16:20;1.77;;;1.60;;
4359;SDS011;2193;47.980;7.660;2023-04-25T10:18:46;3.77;;;1.90;;
4359;SDS011;2193;47.980;7.660;2023-04-25T10:21:11;2.73;;;1.60;;
4359;SDS011;2193;47.980;7.660;2023-04-25T10:23:37;2.00;;;1.70;;
4359;SDS011;2193;47.980;7.660;2023-04-25T10:26:03;2.93;;;1.80;;
4359;SDS011;2193;47.980;7.660;2023-04-25T10:28:28;2.60;;;2.20;;
4359;SDS011;2193;47.980;7.660;2023-04-25T10:31:00;4.70;;;2.00;;
4359;SDS011;2193;47.980;7.660;2023-04-25T10:33:29;4.20;;;2.20;;
4359;SDS011;2193;47.980;7.660;2023-04-25T10:35:57;2.20;;;1.50;;
4359;SDS011;2193;47.980;7.660;2023-04-25T10:38:23;3.03;;;1.90;;
4359;SDS011;2193;47.980;7.660;2023-04-25T10:41:07;2.70;;;1.87;;
4359;SDS011;2193;47.980;7.660;2023-04-25T10:43:34;2.57;;;1.83;;
4359;SDS011;2193;47.980;7.660;2023-04-25T10:46:00;3.43;;;1.87;;
4359;SDS011;2193;47.980;7.660;2023-04-25T10:48:26;3.93;;;2.13;;
4359;SDS011;2193;47.980;7.660;2023-04-25T10:51:06;2.43;;;2.00;;
4359;SDS011;2193;47.980;7.660;2023-04-25T10:53:33;2.67;;;2.20;;
4359;SDS011;2193;47.980;7.660;2023-04-25T10:55:58;2.30;;;2.10;;
4359;SDS011;2193;47.980;7.660;2023-04-25T10:58:23;4.17;;;2.70;;
4359;SDS011;2193;47.980;7.660;2023-04-25T11:00:49;2.93;;;2.50;;
4359;SDS011;2193;47.980;7.660;2023-04-25T11:03:15;3.33;;;2.50;;
4359;SDS011;2193;47.980;7.660;2023-04-25T11:05:41;3.63;;;2.90;;
4359;SDS011;2193;47.980;7.660;2023-04-25T11:08:11;6.90;;;3.20;;
4359;SDS011;2193;47.980;7.660;2023-04-25T11:10:36;6.40;;;3.37;;
4359;SDS011;2193;47.980;7.660;2023-04-25T11:13:01;6.67;;;4.73;;
4359;SDS011;2193;47.980;7.660;2023-04-25T11:15:27;3.67;;;2.87;;
4359;SDS011;2193;47.980;7.660;2023-04-25T11:17:52;3.83;;;2.30;;
4359;SDS011;2193;47.980;7.660;2023-04-25T11:20:18;2.47;;;2.20;;
4359;SDS011;2193;47.980;7.660;2023-04-25T11:22:44;2.20;;;1.83;;
4359;SDS011;2193;47.980;7.660;2023-04-25T11:25:10;2.80;;;2.10;;
4359;SDS011;2193;47.980;7.660;2023-04-25T11:27:51;2.10;;;1.90;;
4359;SDS011;2193;47.980;7.660;2023-04-25T11:30:17;3.10;;;1.90;;
4359;SDS011;2193;47.980;7.660;2023-04-25T11:32:42;3.17;;;2.40;;
4359;SDS011;2193;47.980;7.660;2023-04-25T11:35:10;2.60;;;2.40;;
4359;SDS011;2193;47.980;7.660;2023-04-25T11:37:36;2.90;;;2.60;;
4359;SDS011;2193;47.980;7.660;2023-04-25T11:40:04;3.57;;;2.60;;
4359;SDS011;2193;47.980;7.660;2023-04-25T11:42:31;2.67;;;2.47;;
4359;SDS011;2193;47.980;7.660;2023-04-25T11:44:56;2.57;;;2.20;;
4359;SDS011;2193;47.980;7.660;2023-04-25T11:47:27;3.50;;;2.90;;
4359;SDS011;2193;47.980;7.660;2023-04-25T11:49:53;3.27;;;2.77;;
4359;SDS011;2193;47.980;7.660;2023-04-25T11:52:18;3.13;;;2.17;;
4359;SDS011;2193;47.980;7.660;2023-04-25T11:54:43;2.23;;;2.03;;
4359;SDS011;2193;47.980;7.660;2023-04-25T11:57:09;4.87;;;2.43;;
4359;SDS011;2193;47.980;7.660;2023-04-25T11:59:34;2.67;;;2.40;;
4359;SDS011;2193;47.980;7.660;2023-04-25T12:02:00;3.63;;;2.20;;
4359;SDS011;2193;47.980;7.660;2023-04-25T12:04:29;3.53;;;2.90;;
4359;SDS011;2193;47.980;7.660;2023-04-25T12:06:55;3.37;;;2.27;;
4359;SDS011;2193;47.980;7.660;2023-04-25T12:09:21;2.93;;;2.00;;
4359;SDS011;2193;47.980;7.660;2023-04-25T12:11:55;1.87;;;1.70;;
4359;SDS011;2193;47.980;7.660;2023-04-25T12:14:24;4.50;;;1.87;;
4359;SDS011;2193;47.980;7.660;2023-04-25T12:16:51;2.70;;;1.80;;
4359;SDS011;2193;47.980;7.660;2023-04-25T12:19:19;2.70;;;2.17;;
4359;SDS011;2193;47.980;7.660;2023-04-25T12:21:45;4.30;;;1.87;;
4359;SDS011;2193;47.980;7.660;2023-04-25T12:24:14;4.27;;;2.83;;
4359;SDS011;2193;47.980;7.660;2023-04-25T12:26:50;2.40;;;2.20;;
4359;SDS011;2193;47.980;7.660;2023-04-25T12:29:18;3.13;;;1.90;;
4359;SDS011;2193;47.980;7.660;2023-04-25T12:31:44;1.60;;;1.50;;
4359;SDS011;2193;47.980;7.660;2023-04-25T12:34:10;2.17;;;1.80;;
4359;SDS011;2193;47.980;7.660;2023-04-25T12:36:35;4.13;;;1.60;;
4359;SDS011;2193;47.980;7.660;2023-04-25T12:39:00;1.60;;;1.50;;
4359;SDS011;2193;47.980;7.660;2023-04-25T12:41:29;5.67;;;2.03;;
4359;SDS011;2193;47.980;7.660;2023-04-25T12:43:54;2.60;;;1.80;;
4359;SDS011;2193;47.980;7.660;2023-04-25T12:46:19;3.43;;;1.90;;
4359;SDS011;2193;47.980;7.660;2023-04-25T12:48:45;3.20;;;1.90;;
4359;SDS011;2193;47.980;7.660;2023-04-25T12:51:10;2.70;;;1.90;;
4359;SDS011;2193;47.980;7.660;2023-04-25T12:53:35;1.63;;;1.43;;
4359;SDS011;2193;47.980;7.660;2023-04-25T12:56:02;1.73;;;1.63;;
4359;SDS011;2193;47.980;7.660;2023-04-25T12:58:28;5.03;;;2.27;;
4359;SDS011;2193;47.980;7.660;2023-04-25T13:00:53;3.90;;;1.60;;
4359;SDS011;2193;47.980;7.660;2023-04-25T13:03:18;2.60;;;1.67;;
4359;SDS011;2193;47.980;7.660;2023-04-25T13:05:43;3.80;;;1.90;;
4359;SDS011;2193;47.980;7.660;2023-04-25T13:08:08;1.97;;;1.87;;
4359;SDS011;2193;47.980;7.660;2023-04-25T13:10:34;2.00;;;1.40;;
4359;SDS011;2193;47.980;7.660;2023-04-25T13:13:00;1.87;;;1.67;;
4359;SDS011;2193;47.980;7.660;2023-04-25T13:15:26;2.50;;;1.53;;
4359;SDS011;2193;47.980;7.660;2023-04-25T13:17:51;2.57;;;1.80;;
4359;SDS011;2193;47.980;7.660;2023-04-25T13:20:17;1.93;;;1.63;;
4359;SDS011;2193;47.980;7.660;2023-04-25T13:22:43;2.50;;;1.70;;
4359;SDS011;2193;47.980;7.660;2023-04-25T13:25:10;3.03;;;1.67;;
4359;SDS011;2193;47.980;7.660;2023-04-25T13:27:36;1.97;;;1.60;;
4359;SDS011;2193;47.980;7.660;2023-04-25T13:30:01;3.13;;;1.50;;
4359;SDS011;2193;47.980;7.660;2023-04-25T13:32:32;3.87;;;1.60;;
4359;SDS011;2193;47.980;7.660;2023-04-25T13:34:57;1.97;;;1.30;;
4359;SDS011;2193;47.980;7.660;2023-04-25T13:37:22;2.30;;;1.30;;
4359;SDS011;2193;47.980;7.660;2023-04-25T13:39:49;1.57;;;1.47;;
4359;SDS011;2193;47.980;7.660;2023-04-25T13:42:14;1.47;;;1.37;;
4359;SDS011;2193;47.980;7.660;2023-04-25T13:44:40;3.23;;;1.90;;
4359;SDS011;2193;47.980;7.660;2023-04-25T13:47:06;1.93;;;1.70;;
4359;SDS011;2193;47.980;7.660;2023-04-25T13:49:31;1.90;;;1.43;;
4359;SDS011;2193;47.980;7.660;2023-04-25T13:51:56;2.27;;;1.50;;
4359;SDS011;2193;47.980;7.660;2023-04-25T13:54:21;1.60;;;1.50;;
4359;SDS011;2193;47.980;7.660;2023-04-25T13:56:47;3.47;;;1.87;;
4359;SDS011;2193;47.980;7.660;2023-04-25T13:59:13;2.27;;;1.40;;
4359;SDS011;2193;47.980;7.660;2023-04-25T14:01:39;1.90;;;1.60;;
4359;SDS011;2193;47.980;7.660;2023-04-25T14:04:04;3.20;;;1.80;;
4359;SDS011;2193;47.980;7.660;2023-04-25T14:06:31;1.53;;;1.43;;
4359;SDS011;2193;47.980;7.660;2023-04-25T14:08:56;2.90;;;1.63;;
4359;SDS011;2193;47.980;7.660;2023-04-25T14:11:21;3.00;;;1.50;;
4359;SDS011;2193;47.980;7.660;2023-04-25T14:13:46;2.30;;;1.90;;
4359;SDS011;2193;47.980;7.660;2023-04-25T14:16:13;2.27;;;1.70;;
4359;SDS011;2193;47.980;7.660;2023-04-25T14:18:39;2.17;;;1.97;;
4359;SDS011;2193;47.980;7.660;2023-04-25T14:21:04;2.07;;;1.80;;
4359;SDS011;2193;47.980;7.660;2023-04-25T14:23:30;2.00;;;1.80;;
4359;SDS011;2193;47.980;7.660;2023-04-25T14:25:55;4.73;;;2.20;;
4359;SDS011;2193;47.980;7.660;2023-04-25T14:28:20;2.13;;;1.93;;
4359;SDS011;2193;47.980;7.660;2023-04-25T14:30:45;3.07;;;1.80;;
4359;SDS011;2193;47.980;7.660;2023-04-25T14:33:11;2.10;;;1.83;;
4359;SDS011;2193;47.980;7.660;2023-04-25T14:35:36;3.60;;;2.00;;
4359;SDS011;2193;47.980;7.660;2023-04-25T14:38:01;2.63;;;2.07;;
4359;SDS011;2193;47.980;7.660;2023-04-25T14:40:26;5.27;;;2.00;;
4359;SDS011;2193;47.980;7.660;2023-04-25T14:42:52;1.93;;;1.53;;
4359;SDS011;2193;47.980;7.660;2023-04-25T14:45:17;1.90;;;1.70;;
4359;SDS011;2193;47.980;7.660;2023-04-25T14:47:42;3.63;;;2.40;;
4359;SDS011;2193;47.980;7.660;2023-04-25T14:50:08;2.17;;;1.60;;
4359;SDS011;2193;47.980;7.660;2023-04-25T14:52:34;4.70;;;2.13;;
4359;SDS011;2193;47.980;7.660;2023-04-25T14:54:59;2.03;;;1.83;;
4359;SDS011;2193;47.980;7.660;2023-04-25T14:57:30;5.33;;;2.10;;
4359;SDS011;2193;47.980;7.660;2023-04-25T14:59:56;3.20;;;2.40;;
4359;SDS011;2193;47.980;7.660;2023-04-25T15:02:21;2.73;;;2.40;;
4359;SDS011;2193;47.980;7.660;2023-04-25T15:04:46;3.70;;;2.77;;